sensor_id;sensor_type;location;lat;lon;timestamp;pressure;altitude;pressure_sealevel;temperature;humidity
12969;BME280;6549;53.128;8.182;2024-01-16T00:00:59;100121.28;;;0.39;100.00
12969;BME280;6549;53.128;8.182;2024-01-16T00:04:00;100126.59;;;0.27;100.00
12969;BME280;6549;53.128;8.182;2024-01-16T00:07:00;100124.25;;;0.25;100.00
12969;BME280;6549;53.128;8.182;2024-01-16T00:10:00;100131.63;;;0.16;100.00
12969;BME280;6549;53.128;8.182;2024-01-16T00:13:01;100131.16;;;0.14;100.00
12969;BME280;6549;53.128;8.182;2024-01-16T00:16:02;100123.72;;;0.11;100.00
12969;BME280;6549;53.128;8.182;2024-01-16T00:19:03;100124.22;;;0.13;100.00
12969;BME280;6549;53.128;8.182;2024-01-16T00:22:03;100123.25;;;0.09;100.00
12969;BME280;6549;53.128;8.182;2024-01-16T00:25:05;100118.44;;;0.15;100.00
12969;BME280;6549;53.128;8.182;2024-01-16T00:28:06;100132.31;;;0.13;100.00
12969;BME280;6549;53.128;8.182;2024-01-16T00:31:07;100130.09;;;0.27;100.00
12969;BME280;6549;53.128;8.182;2024-01-16T00:34:08;100119.25;;;0.15;100.00
12969;BME280;6549;53.128;8.182;2024-01-16T00:37:08;100128.34;;;0.11;100.00
12969;BME280;6549;53.128;8.182;2024-01-16T00:40:09;100144.84;;;0.18;100.00
12969;BME280;6549;53.128;8.182;2024-01-16T00:43:09;100149.09;;;-0.02;100.00
12969;BME280;6549;53.128;8.182;2024-01-16T00:46:10;100150.69;;;-0.01;100.00
12969;BME280;6549;53.128;8.182;2024-01-16T00:49:10;100163.59;;;-0.07;100.00
12969;BME280;6549;53.128;8.182;2024-01-16T00:52:10;100165.81;;;-0.09;100.00
12969;BME280;6549;53.128;8.182;2024-01-16T00:55:11;100162.91;;;-0.24;100.00
12969;BME280;6549;53.128;8.182;2024-01-16T00:58:11;100159.34;;;-0.37;100.00
12969;BME280;6549;53.128;8.182;2024-01-16T01:01:11;100159.47;;;-0.33;100.00
12969;BME280;6549;53.128;8.182;2024-01-16T01:04:12;100163.28;;;-0.34;100.00
12969;BME280;6549;53.128;8.182;2024-01-16T01:07:15;100168.97;;;-0.27;100.00
12969;BME280;6549;53.128;8.182;2024-01-16T01:10:16;100169.63;;;-0.30;100.00
12969;BME280;6549;53.128;8.182;2024-01-16T01:13:16;100175.19;;;-0.27;100.00
12969;BME280;6549;53.128;8.182;2024-01-16T01:16:17;100178.69;;;-0.35;100.00
12969;BME280;6549;53.128;8.182;2024-01-16T01:19:18;100171.69;;;-0.27;100.00
12969;BME280;6549;53.128;8.182;2024-01-16T01:22:18;100170.88;;;-0.28;100.00
12969;BME280;6549;53.128;8.182;2024-01-16T01:25:18;100169.03;;;-0.36;100.00
12969;BME280;6549;53.128;8.182;2024-01-16T01:28:19;100176.03;;;-0.43;100.00
12969;BME280;6549;53.128;8.182;2024-01-16T01:31:19;100177.44;;;-0.37;100.00
12969;BME280;6549;53.128;8.182;2024-01-16T01:34:19;100178.13;;;-0.40;100.00
12969;BME280;6549;53.128;8.182;2024-01-16T01:37:20;100183.03;;;-0.42;100.00
12969;BME280;6549;53.128;8.182;2024-01-16T01:40:20;100183.03;;;-0.42;100.00
12969;BME280;6549;53.128;8.182;2024-01-16T01:43:22;100181.91;;;-0.41;100.00
12969;BME280;6549;53.128;8.182;2024-01-16T01:46:23;100183.25;;;-0.56;100.00
12969;BME280;6549;53.128;8.182;2024-01-16T01:49:25;100173.22;;;-0.47;100.00
12969;BME280;6549;53.128;8.182;2024-01-16T01:52:26;100179.72;;;-0.48;100.00
12969;BME280;6549;53.128;8.182;2024-01-16T01:55:27;100187.22;;;-0.54;100.00
12969;BME280;6549;53.128;8.182;2024-01-16T01:58:28;100192.63;;;-0.54;100.00
12969;BME280;6549;53.128;8.182;2024-01-16T02:01:31;100200.38;;;-0.52;100.00
12969;BME280;6549;53.128;8.182;2024-01-16T02:04:32;100202.28;;;-0.53;100.00
12969;BME280;6549;53.128;8.182;2024-01-16T02:07:34;100212.91;;;-0.48;100.00
12969;BME280;6549;53.128;8.182;2024-01-16T02:10:37;100208.63;;;-0.49;100.00
12969;BME280;6549;53.128;8.182;2024-01-16T02:13:39;100219.41;;;-0.49;100.00
12969;BME280;6549;53.128;8.182;2024-01-16T02:16:41;100209.88;;;-0.46;100.00
12969;BME280;6549;53.128;8.182;2024-01-16T02:19:42;100224.06;;;-0.58;100.00
12969;BME280;6549;53.128;8.182;2024-01-16T02:22:45;100230.19;;;-0.49;100.00
12969;BME280;6549;53.128;8.182;2024-01-16T02:25:48;100232.94;;;-0.57;100.00
12969;BME280;6549;53.128;8.182;2024-01-16T02:28:48;100229.00;;;-0.60;100.00
12969;BME280;6549;53.128;8.182;2024-01-16T02:31:49;100235.34;;;-0.64;100.00
12969;BME280;6549;53.128;8.182;2024-01-16T02:34:49;100241.25;;;-0.62;100.00
12969;BME280;6549;53.128;8.182;2024-01-16T02:37:51;100241.88;;;-0.65;100.00
12969;BME280;6549;53.128;8.182;2024-01-16T02:40:51;100240.09;;;-0.61;100.00
12969;BME280;6549;53.128;8.182;2024-01-16T02:43:51;100244.41;;;-0.69;100.00
12969;BME280;6549;53.128;8.182;2024-01-16T02:46:52;100253.75;;;-0.66;100.00
12969;BME280;6549;53.128;8.182;2024-01-16T02:49:52;100249.78;;;-0.60;100.00
12969;BME280;6549;53.128;8.182;2024-01-16T02:52:52;100251.25;;;-0.63;100.00
12969;BME280;6549;53.128;8.182;2024-01-16T02:55:53;100248.84;;;-0.64;100.00
12969;BME280;6549;53.128;8.182;2024-01-16T02:58:53;100254.56;;;-0.66;100.00
12969;BME280;6549;53.128;8.182;2024-01-16T03:01:54;100250.75;;;-0.65;100.00
12969;BME280;6549;53.128;8.182;2024-01-16T03:04:54;100257.13;;;-0.69;100.00
12969;BME280;6549;53.128;8.182;2024-01-16T03:07:54;100245.22;;;-0.68;100.00
12969;BME280;6549;53.128;8.182;2024-01-16T03:10:55;100246.19;;;-0.73;100.00
12969;BME280;6549;53.128;8.182;2024-01-16T03:13:55;100252.34;;;-0.64;100.00
12969;BME280;6549;53.128;8.182;2024-01-16T03:16:56;100249.81;;;-0.69;100.00
12969;BME280;6549;53.128;8.182;2024-01-16T03:19:56;100251.56;;;-0.73;100.00
12969;BME280;6549;53.128;8.182;2024-01-16T03:22:56;100250.16;;;-0.79;100.00
12969;BME280;6549;53.128;8.182;2024-01-16T03:25:57;100246.97;;;-0.72;100.00
12969;BME280;6549;53.128;8.182;2024-01-16T03:28:57;100258.41;;;-0.84;100.00
12969;BME280;6549;53.128;8.182;2024-01-16T03:31:57;100247.00;;;-0.81;100.00
12969;BME280;6549;53.128;8.182;2024-01-16T03:34:58;100254.13;;;-0.76;100.00
12969;BME280;6549;53.128;8.182;2024-01-16T03:37:58;100254.63;;;-0.83;100.00
12969;BME280;6549;53.128;8.182;2024-01-16T03:40:58;100260.94;;;-0.79;100.00
12969;BME280;6549;53.128;8.182;2024-01-16T03:43:59;100257.13;;;-0.78;100.00
12969;BME280;6549;53.128;8.182;2024-01-16T03:47:00;100260.16;;;-0.88;100.00
12969;BME280;6549;53.128;8.182;2024-01-16T03:50:00;100252.84;;;-0.79;100.00
12969;BME280;6549;53.128;8.182;2024-01-16T03:53:01;100248.75;;;-0.76;100.00
12969;BME280;6549;53.128;8.182;2024-01-16T03:56:03;100245.06;;;-0.72;100.00
12969;BME280;6549;53.128;8.182;2024-01-16T03:59:03;100243.19;;;-0.80;100.00
12969;BME280;6549;53.128;8.182;2024-01-16T04:02:03;100249.84;;;-0.77;100.00
12969;BME280;6549;53.128;8.182;2024-01-16T04:05:04;100251.56;;;-0.73;100.00
12969;BME280;6549;53.128;8.182;2024-01-16T04:08:05;100243.47;;;-0.73;100.00
12969;BME280;6549;53.128;8.182;2024-01-16T04:11:11;100247.63;;;-0.75;100.00
12969;BME280;6549;53.128;8.182;2024-01-16T04:14:12;100239.06;;;-0.86;100.00
12969;BME280;6549;53.128;8.182;2024-01-16T04:17:12;100244.63;;;-0.82;100.00
12969;BME280;6549;53.128;8.182;2024-01-16T04:20:12;100241.28;;;-0.88;100.00
12969;BME280;6549;53.128;8.182;2024-01-16T04:23:13;100241.28;;;-0.88;100.00
12969;BME280;6549;53.128;8.182;2024-01-16T04:26:13;100235.13;;;-0.97;100.00
12969;BME280;6549;53.128;8.182;2024-01-16T04:29:14;100242.28;;;-1.01;100.00
12969;BME280;6549;53.128;8.182;2024-01-16T04:32:14;100243.69;;;-0.95;100.00
12969;BME280;6549;53.128;8.182;2024-01-16T04:35:15;100229.56;;;-0.92;100.00
12969;BME280;6549;53.128;8.182;2024-01-16T04:38:15;100229.72;;;-0.88;100.00
12969;BME280;6549;53.128;8.182;2024-01-16T04:41:18;100231.00;;;-0.95;100.00
12969;BME280;6549;53.128;8.182;2024-01-16T04:44:18;100222.13;;;-0.95;100.00
12969;BME280;6549;53.128;8.182;2024-01-16T04:47:19;100220.22;;;-0.95;100.00
12969;BME280;6549;53.128;8.182;2024-01-16T04:50:19;100227.03;;;-0.97;100.00
12969;BME280;6549;53.128;8.182;2024-01-16T04:53:20;100217.97;;;-0.93;100.00
12969;BME280;6549;53.128;8.182;2024-01-16T04:56:20;100221.63;;;-0.97;100.00
12969;BME280;6549;53.128;8.182;2024-01-16T04:59:21;100229.44;;;-1.04;100.00
12969;BME280;6549;53.128;8.182;2024-01-16T05:02:21;100237.19;;;-0.94;100.00
12969;BME280;6549;53.128;8.182;2024-01-16T05:05:21;100239.91;;;-0.94;100.00
12969;BME280;6549;53.128;8.182;2024-01-16T05:08:22;100235.47;;;-0.99;100.00
12969;BME280;6549;53.128;8.182;2024-01-16T05:11:22;100238.13;;;-0.90;100.00
12969;BME280;6549;53.128;8.182;2024-01-16T05:14:23;100228.19;;;-1.07;100.00
12969;BME280;6549;53.128;8.182;2024-01-16T05:17:25;100235.91;;;-0.97;100.00
12969;BME280;6549;53.128;8.182;2024-01-16T05:20:25;100235.34;;;-1.11;100.00
12969;BME280;6549;53.128;8.182;2024-01-16T05:23:25;100227.41;;;-1.07;100.00
12969;BME280;6549;53.128;8.182;2024-01-16T05:26:26;100250.88;;;-1.08;100.00
12969;BME280;6549;53.128;8.182;2024-01-16T05:29:26;100243.72;;;-1.04;100.00
12969;BME280;6549;53.128;8.182;2024-01-16T05:32:27;100243.84;;;-0.92;100.00
12969;BME280;6549;53.128;8.182;2024-01-16T05:35:27;100248.28;;;-0.87;100.00
12969;BME280;6549;53.128;8.182;2024-01-16T05:38:30;100246.22;;;-0.90;100.00
12969;BME280;6549;53.128;8.182;2024-01-16T05:41:34;100244.50;;;-0.95;100.00
12969;BME280;6549;53.128;8.182;2024-01-16T05:44:35;100234.63;;;-0.82;100.00
12969;BME280;6549;53.128;8.182;2024-01-16T05:47:35;100230.50;;;-0.88;100.00
12969;BME280;6549;53.128;8.182;2024-01-16T05:50:36;100233.03;;;-0.83;100.00
12969;BME280;6549;53.128;8.182;2024-01-16T05:53:37;100230.66;;;-0.76;100.00
12969;BME280;6549;53.128;8.182;2024-01-16T05:56:37;100254.41;;;-0.69;100.00
12969;BME280;6549;53.128;8.182;2024-01-16T05:59:38;100263.28;;;-0.60;100.00
12969;BME280;6549;53.128;8.182;2024-01-16T06:02:38;100260.84;;;-0.53;100.00
12969;BME280;6549;53.128;8.182;2024-01-16T06:05:38;100258.16;;;-0.53;100.00
12969;BME280;6549;53.128;8.182;2024-01-16T06:08:39;100254.25;;;-0.64;100.00
12969;BME280;6549;53.128;8.182;2024-01-16T06:11:40;100256.63;;;-0.63;100.00
12969;BME280;6549;53.128;8.182;2024-01-16T06:14:43;100256.16;;;-0.65;100.00
12969;BME280;6549;53.128;8.182;2024-01-16T06:17:43;100242.66;;;-0.65;100.00
12969;BME280;6549;53.128;8.182;2024-01-16T06:20:44;100242.81;;;-0.70;100.00
12969;BME280;6549;53.128;8.182;2024-01-16T06:23:44;100235.06;;;-0.71;100.00
12969;BME280;6549;53.128;8.182;2024-01-16T06:26:45;100236.97;;;-0.72;100.00
12969;BME280;6549;53.128;8.182;2024-01-16T06:29:46;100236.94;;;-0.63;100.00
12969;BME280;6549;53.128;8.182;2024-01-16T06:32:46;100236.81;;;-0.67;100.00
12969;BME280;6549;53.128;8.182;2024-01-16T06:35:47;100240.47;;;-0.71;100.00
12969;BME280;6549;53.128;8.182;2024-01-16T06:38:47;100238.41;;;-0.74;100.00
12969;BME280;6549;53.128;8.182;2024-01-16T06:41:47;100234.63;;;-0.82;100.00
12969;BME280;6549;53.128;8.182;2024-01-16T06:44:48;100235.22;;;-0.68;100.00
12969;BME280;6549;53.128;8.182;2024-01-16T06:47:48;100232.19;;;-0.66;100.00
12969;BME280;6549;53.128;8.182;2024-01-16T06:50:48;100235.22;;;-0.68;100.00
12969;BME280;6549;53.128;8.182;2024-01-16T06:53:49;100238.75;;;-0.76;100.00
12969;BME280;6549;53.128;8.182;2024-01-16T06:56:49;100253.47;;;-0.73;100.00
12969;BME280;6549;53.128;8.182;2024-01-16T06:59:50;100250.31;;;-0.75;100.00
12969;BME280;6549;53.128;8.182;2024-01-16T07:02:50;100262.50;;;-0.69;100.00
12969;BME280;6549;53.128;8.182;2024-01-16T07:05:51;100262.31;;;-0.56;100.00
12969;BME280;6549;53.128;8.182;2024-01-16T07:08:51;100264.88;;;-0.59;100.00
12969;BME280;6549;53.128;8.182;2024-01-16T07:11:52;100262.66;;;-0.66;100.00
12969;BME280;6549;53.128;8.182;2024-01-16T07:14:52;100266.78;;;-0.60;100.00
12969;BME280;6549;53.128;8.182;2024-01-16T07:17:52;100269.31;;;-0.55;100.00
12969;BME280;6549;53.128;8.182;2024-01-16T07:20:53;100272.66;;;-0.58;100.00
12969;BME280;6549;53.128;8.182;2024-01-16T07:23:54;100269.59;;;-0.48;100.00
12969;BME280;6549;53.128;8.182;2024-01-16T07:26:54;100272.13;;;-0.51;100.00
12969;BME280;6549;53.128;8.182;2024-01-16T07:29:54;100276.28;;;-0.54;100.00
12969;BME280;6549;53.128;8.182;2024-01-16T07:32:55;100275.66;;;-0.59;100.00
12969;BME280;6549;53.128;8.182;2024-01-16T07:35:55;100282.34;;;-0.65;100.00
12969;BME280;6549;53.128;8.182;2024-01-16T07:38:55;100279.16;;;-0.59;100.00
12969;BME280;6549;53.128;8.182;2024-01-16T07:41:56;100278.50;;;-0.56;100.00
12969;BME280;6549;53.128;8.182;2024-01-16T07:44:56;100278.06;;;-0.58;100.00
12969;BME280;6549;53.128;8.182;2024-01-16T07:47:58;100286.25;;;-0.46;100.00
12969;BME280;6549;53.128;8.182;2024-01-16T07:50:58;100283.44;;;-0.58;100.00
12969;BME280;6549;53.128;8.182;2024-01-16T07:54:09;100289.75;;;-0.45;100.00
12969;BME280;6549;53.128;8.182;2024-01-16T07:57:09;100290.91;;;-0.63;100.00
12969;BME280;6549;53.128;8.182;2024-01-16T08:00:10;100293.88;;;-0.48;100.00
12969;BME280;6549;53.128;8.182;2024-01-16T08:03:12;100290.06;;;-0.47;100.00
12969;BME280;6549;53.128;8.182;2024-01-16T08:06:13;100289.25;;;-0.47;100.00
12969;BME280;6549;53.128;8.182;2024-01-16T08:09:13;100296.13;;;-0.50;100.00
12969;BME280;6549;53.128;8.182;2024-01-16T08:12:14;100301.50;;;-0.50;100.00
12969;BME280;6549;53.128;8.182;2024-01-16T08:15:14;100299.75;;;-0.46;100.00
12969;BME280;6549;53.128;8.182;2024-01-16T08:18:15;100303.03;;;-0.31;100.00
12969;BME280;6549;53.128;8.182;2024-01-16T08:21:17;100304.78;;;-0.35;100.00
12969;BME280;6549;53.128;8.182;2024-01-16T08:24:18;100301.44;;;-0.32;100.00
12969;BME280;6549;53.128;8.182;2024-01-16T08:27:19;100303.59;;;-0.17;100.00
12969;BME280;6549;53.128;8.182;2024-01-16T08:30:19;100295.03;;;-0.19;100.00
12969;BME280;6549;53.128;8.182;2024-01-16T08:33:20;100299.38;;;-0.27;100.00
12969;BME280;6549;53.128;8.182;2024-01-16T08:36:20;100303.56;;;-0.09;100.00
12969;BME280;6549;53.128;8.182;2024-01-16T08:39:20;100308.03;;;-0.13;100.00
12969;BME280;6549;53.128;8.182;2024-01-16T08:42:20;100309.56;;;-0.32;100.00
12969;BME280;6549;53.128;8.182;2024-01-16T08:45:21;100307.66;;;-0.32;100.00
12969;BME280;6549;53.128;8.182;2024-01-16T08:48:21;100303.31;;;-0.24;100.00
12969;BME280;6549;53.128;8.182;2024-01-16T08:51:22;100309.19;;;-0.22;100.00
12969;BME280;6549;53.128;8.182;2024-01-16T08:54:22;100311.38;;;-0.16;100.00
12969;BME280;6549;53.128;8.182;2024-01-16T08:57:23;100308.66;;;-0.07;100.00
12969;BME280;6549;53.128;8.182;2024-01-16T09:00:23;100311.34;;;-0.07;100.00
12969;BME280;6549;53.128;8.182;2024-01-16T09:03:23;100318.75;;;0.05;100.00
12969;BME280;6549;53.128;8.182;2024-01-16T09:06:24;100321.97;;;-0.02;100.00
12969;BME280;6549;53.128;8.182;2024-01-16T09:09:24;100328.44;;;0.06;100.00
12969;BME280;6549;53.128;8.182;2024-01-16T09:12:24;100330.56;;;0.00;100.00
12969;BME280;6549;53.128;8.182;2024-01-16T09:15:26;100328.56;;;0.09;100.00
12969;BME280;6549;53.128;8.182;2024-01-16T09:18:26;100329.66;;;0.17;100.00
12969;BME280;6549;53.128;8.182;2024-01-16T09:21:27;100321.88;;;0.15;100.00
12969;BME280;6549;53.128;8.182;2024-01-16T09:24:28;100326.31;;;0.20;100.00
12969;BME280;6549;53.128;8.182;2024-01-16T09:27:29;100329.28;;;0.27;100.00
12969;BME280;6549;53.128;8.182;2024-01-16T09:30:29;100326.44;;;0.23;100.00
12969;BME280;6549;53.128;8.182;2024-01-16T09:33:29;100331.66;;;0.28;100.00
12969;BME280;6549;53.128;8.182;2024-01-16T09:36:30;100328.03;;;0.24;100.00
12969;BME280;6549;53.128;8.182;2024-01-16T09:39:30;100334.44;;;0.40;100.00
12969;BME280;6549;53.128;8.182;2024-01-16T09:42:31;100338.00;;;0.32;100.00
12969;BME280;6549;53.128;8.182;2024-01-16T09:45:32;100340.66;;;0.41;100.00
12969;BME280;6549;53.128;8.182;2024-01-16T09:48:34;100338.06;;;0.44;100.00
12969;BME280;6549;53.128;8.182;2024-01-16T09:51:34;100337.00;;;0.37;100.00
12969;BME280;6549;53.128;8.182;2024-01-16T09:54:34;100338.81;;;0.54;100.00
12969;BME280;6549;53.128;8.182;2024-01-16T09:57:39;100340.69;;;0.62;100.00
12969;BME280;6549;53.128;8.182;2024-01-16T10:00:43;100340.63;;;0.91;100.00
12969;BME280;6549;53.128;8.182;2024-01-16T10:03:46;100340.63;;;0.91;100.00
12969;BME280;6549;53.128;8.182;2024-01-16T10:06:47;100343.19;;;0.87;100.00
12969;BME280;6549;53.128;8.182;2024-01-16T10:09:49;100340.28;;;0.72;100.00
12969;BME280;6549;53.128;8.182;2024-01-16T10:12:50;100344.50;;;0.81;100.00
12969;BME280;6549;53.128;8.182;2024-01-16T10:15:51;100337.31;;;0.85;100.00
12969;BME280;6549;53.128;8.182;2024-01-16T10:19:03;100332.44;;;0.79;100.00
12969;BME280;6549;53.128;8.182;2024-01-16T10:22:05;100333.56;;;0.78;100.00
12969;BME280;6549;53.128;8.182;2024-01-16T10:28:08;100328.41;;;0.85;100.00
12969;BME280;6549;53.128;8.182;2024-01-16T10:31:12;100329.75;;;0.79;100.00
12969;BME280;6549;53.128;8.182;2024-01-16T10:34:19;100336.91;;;0.96;100.00
12969;BME280;6549;53.128;8.182;2024-01-16T10:37:21;100332.44;;;1.00;100.00
12969;BME280;6549;53.128;8.182;2024-01-16T10:40:23;100329.03;;;1.23;100.00
12969;BME280;6549;53.128;8.182;2024-01-16T10:43:26;100331.06;;;1.26;100.00
12969;BME280;6549;53.128;8.182;2024-01-16T10:46:26;100333.81;;;1.06;100.00
12969;BME280;6549;53.128;8.182;2024-01-16T10:49:27;100342.66;;;0.94;100.00
12969;BME280;6549;53.128;8.182;2024-01-16T10:52:27;100344.13;;;0.71;100.00
12969;BME280;6549;53.128;8.182;2024-01-16T10:55:29;100349.78;;;0.57;100.00
12969;BME280;6549;53.128;8.182;2024-01-16T10:58:30;100346.28;;;0.57;100.00
12969;BME280;6549;53.128;8.182;2024-01-16T11:01:32;100343.84;;;0.64;100.00
12969;BME280;6549;53.128;8.182;2024-01-16T11:04:32;100341.00;;;0.81;100.00
12969;BME280;6549;53.128;8.182;2024-01-16T11:07:35;100338.66;;;0.79;100.00
12969;BME280;6549;53.128;8.182;2024-01-16T11:10:36;100333.75;;;0.94;100.00
12969;BME280;6549;53.128;8.182;2024-01-16T11:13:38;100339.50;;;0.92;100.00
12969;BME280;6549;53.128;8.182;2024-01-16T11:16:39;100329.88;;;0.82;100.00
12969;BME280;6549;53.128;8.182;2024-01-16T11:19:40;100330.00;;;0.65;100.00
12969;BME280;6549;53.128;8.182;2024-01-16T11:22:43;100334.81;;;0.80;100.00
12969;BME280;6549;53.128;8.182;2024-01-16T11:25:45;100329.88;;;0.82;100.00
12969;BME280;6549;53.128;8.182;2024-01-16T11:28:45;100320.63;;;0.83;100.00
12969;BME280;6549;53.128;8.182;2024-01-16T11:31:46;100321.56;;;0.87;100.00
12969;BME280;6549;53.128;8.182;2024-01-16T11:37:51;100327.75;;;0.88;100.00
12969;BME280;6549;53.128;8.182;2024-01-16T11:40:51;100318.38;;;0.85;100.00
12969;BME280;6549;53.128;8.182;2024-01-16T11:43:51;100324.69;;;0.89;100.00
12969;BME280;6549;53.128;8.182;2024-01-16T11:47:02;100329.66;;;0.87;100.00
12969;BME280;6549;53.128;8.182;2024-01-16T11:50:10;100324.59;;;0.86;100.00
12969;BME280;6549;53.128;8.182;2024-01-16T11:53:11;100321.75;;;0.82;100.00
12969;BME280;6549;53.128;8.182;2024-01-16T12:00:05;100325.97;;;0.92;100.00
12969;BME280;6549;53.128;8.182;2024-01-16T12:03:13;100324.91;;;1.05;100.00
12969;BME280;6549;53.128;8.182;2024-01-16T12:06:16;100319.66;;;0.88;100.00
12969;BME280;6549;53.128;8.182;2024-01-16T12:09:17;100326.34;;;1.03;100.00
12969;BME280;6549;53.128;8.182;2024-01-16T12:12:17;100311.25;;;1.02;100.00
12969;BME280;6549;53.128;8.182;2024-01-16T12:15:21;100313.59;;;1.03;100.00
12969;BME280;6549;53.128;8.182;2024-01-16T12:18:22;100312.16;;;1.06;100.00
12969;BME280;6549;53.128;8.182;2024-01-16T12:21:22;100309.78;;;1.04;100.00
12969;BME280;6549;53.128;8.182;2024-01-16T12:24:22;100312.97;;;1.06;100.00
12969;BME280;6549;53.128;8.182;2024-01-16T12:27:23;100307.56;;;1.06;100.00
12969;BME280;6549;53.128;8.182;2024-01-16T12:30:30;100311.50;;;1.09;100.00
12969;BME280;6549;53.128;8.182;2024-01-16T12:33:31;100290.09;;;1.16;100.00
12969;BME280;6549;53.128;8.182;2024-01-16T12:36:32;100290.44;;;1.14;100.00
12969;BME280;6549;53.128;8.182;2024-01-16T12:39:34;100285.91;;;1.06;100.00
12969;BME280;6549;53.128;8.182;2024-01-16T12:42:35;100291.97;;;1.03;100.00
12969;BME280;6549;53.128;8.182;2024-01-16T12:45:35;100286.94;;;1.14;100.00
12969;BME280;6549;53.128;8.182;2024-01-16T12:48:36;100282.72;;;1.04;100.00
12969;BME280;6549;53.128;8.182;2024-01-16T12:51:37;100278.81;;;1.14;100.00
12969;BME280;6549;53.128;8.182;2024-01-16T12:54:37;100282.53;;;1.09;100.00
12969;BME280;6549;53.128;8.182;2024-01-16T12:57:37;100285.25;;;1.21;100.00
12969;BME280;6549;53.128;8.182;2024-01-16T13:00:38;100273.50;;;1.05;100.00
12969;BME280;6549;53.128;8.182;2024-01-16T13:03:39;100275.31;;;1.13;100.00
12969;BME280;6549;53.128;8.182;2024-01-16T13:06:40;100282.75;;;1.16;100.00
12969;BME280;6549;53.128;8.182;2024-01-16T13:09:44;100271.88;;;0.92;100.00
12969;BME280;6549;53.128;8.182;2024-01-16T13:12:44;100264.78;;;1.00;100.00
12969;BME280;6549;53.128;8.182;2024-01-16T13:15:45;100268.25;;;0.88;100.00
12969;BME280;6549;53.128;8.182;2024-01-16T13:18:45;100263.31;;;1.02;100.00
12969;BME280;6549;53.128;8.182;2024-01-16T13:21:45;100267.88;;;1.10;100.00
12969;BME280;6549;53.128;8.182;2024-01-16T13:24:46;100263.13;;;1.07;100.00
12969;BME280;6549;53.128;8.182;2024-01-16T13:27:46;100268.88;;;1.06;100.00
12969;BME280;6549;53.128;8.182;2024-01-16T13:30:48;100273.94;;;1.07;100.00
12969;BME280;6549;53.128;8.182;2024-01-16T13:33:49;100269.16;;;0.92;100.00
12969;BME280;6549;53.128;8.182;2024-01-16T13:36:51;100267.63;;;1.03;100.00
12969;BME280;6549;53.128;8.182;2024-01-16T13:39:52;100264.00;;;0.99;100.00
12969;BME280;6549;53.128;8.182;2024-01-16T13:42:52;100272.13;;;0.99;100.00
12969;BME280;6549;53.128;8.182;2024-01-16T13:45:52;100259.47;;;0.91;100.00
12969;BME280;6549;53.128;8.182;2024-01-16T13:48:53;100259.53;;;0.82;100.00
12969;BME280;6549;53.128;8.182;2024-01-16T13:51:53;100260.16;;;1.00;100.00
12969;BME280;6549;53.128;8.182;2024-01-16T13:54:53;100248.84;;;0.86;100.00
12969;BME280;6549;53.128;8.182;2024-01-16T13:57:54;100241.34;;;1.04;100.00
12969;BME280;6549;53.128;8.182;2024-01-16T14:00:54;100247.53;;;0.92;100.00
12969;BME280;6549;53.128;8.182;2024-01-16T14:03:55;100247.53;;;0.92;100.00
12969;BME280;6549;53.128;8.182;2024-01-16T14:06:55;100252.53;;;0.81;100.00
12969;BME280;6549;53.128;8.182;2024-01-16T14:09:55;100255.88;;;0.66;100.00
12969;BME280;6549;53.128;8.182;2024-01-16T14:12:55;100254.28;;;0.65;100.00
12969;BME280;6549;53.128;8.182;2024-01-16T14:15:56;100249.31;;;0.88;100.00
12969;BME280;6549;53.128;8.182;2024-01-16T14:18:57;100246.19;;;0.98;100.00
12969;BME280;6549;53.128;8.182;2024-01-16T14:21:58;100237.59;;;0.84;100.00
12969;BME280;6549;53.128;8.182;2024-01-16T14:24:58;100236.44;;;0.85;100.00
12969;BME280;6549;53.128;8.182;2024-01-16T14:28:00;100236.22;;;0.90;100.00
12969;BME280;6549;53.128;8.182;2024-01-16T14:31:03;100231.00;;;0.73;100.00
12969;BME280;6549;53.128;8.182;2024-01-16T14:34:04;100228.47;;;0.88;100.00
12969;BME280;6549;53.128;8.182;2024-01-16T14:37:04;100229.41;;;0.72;100.00
12969;BME280;6549;53.128;8.182;2024-01-16T14:40:06;100227.00;;;0.91;100.00
12969;BME280;6549;53.128;8.182;2024-01-16T14:43:12;100219.56;;;0.88;100.00
12969;BME280;6549;53.128;8.182;2024-01-16T14:46:13;100217.97;;;0.87;100.00
12969;BME280;6549;53.128;8.182;2024-01-16T14:49:13;100224.59;;;0.77;100.00
12969;BME280;6549;53.128;8.182;2024-01-16T14:52:13;100221.84;;;0.65;100.00
12969;BME280;6549;53.128;8.182;2024-01-16T14:55:14;100228.75;;;0.75;100.00
12969;BME280;6549;53.128;8.182;2024-01-16T14:58:14;100215.31;;;0.66;100.00
12969;BME280;6549;53.128;8.182;2024-01-16T15:01:15;100218.69;;;0.75;100.00
12969;BME280;6549;53.128;8.182;2024-01-16T15:04:17;100212.63;;;0.66;100.00
12969;BME280;6549;53.128;8.182;2024-01-16T15:07:17;100213.38;;;0.67;100.00
12969;BME280;6549;53.128;8.182;2024-01-16T15:10:18;100209.25;;;0.69;100.00
12969;BME280;6549;53.128;8.182;2024-01-16T15:13:19;100218.16;;;0.70;100.00
12969;BME280;6549;53.128;8.182;2024-01-16T15:16:20;100221.56;;;0.58;100.00
12969;BME280;6549;53.128;8.182;2024-01-16T15:19:20;100213.66;;;0.74;100.00
12969;BME280;6549;53.128;8.182;2024-01-16T15:22:21;100215.56;;;0.73;100.00
12969;BME280;6549;53.128;8.182;2024-01-16T15:25:21;100223.28;;;0.63;100.00
12969;BME280;6549;53.128;8.182;2024-01-16T15:28:22;100212.63;;;0.66;100.00
12969;BME280;6549;53.128;8.182;2024-01-16T15:31:23;100201.47;;;0.80;100.00
12969;BME280;6549;53.128;8.182;2024-01-16T15:34:24;100206.84;;;0.68;100.00
12969;BME280;6549;53.128;8.182;2024-01-16T15:37:25;100205.75;;;0.69;100.00
12969;BME280;6549;53.128;8.182;2024-01-16T15:40:26;100204.81;;;0.65;100.00
12969;BME280;6549;53.128;8.182;2024-01-16T15:43:26;100206.25;;;0.62;100.00
12969;BME280;6549;53.128;8.182;2024-01-16T15:46:27;100208.97;;;0.62;100.00
12969;BME280;6549;53.128;8.182;2024-01-16T15:49:28;100200.38;;;0.48;100.00
12969;BME280;6549;53.128;8.182;2024-01-16T15:52:29;100206.50;;;0.57;100.00
12969;BME280;6549;53.128;8.182;2024-01-16T15:55:29;100208.41;;;0.57;100.00
12969;BME280;6549;53.128;8.182;2024-01-16T15:58:29;100205.69;;;0.57;100.00
12969;BME280;6549;53.128;8.182;2024-01-16T16:01:32;100207.72;;;0.60;100.00